sensor_id;sensor_type;location;lat;lon;timestamp;P1;durP1;ratioP1;P2;durP2;ratioP2
18893;SDS011;9579;49.488;8.226;2023-08-01T00:02:43;4.65;;;4.25;;
18893;SDS011;9579;49.488;8.226;2023-08-01T00:05:31;3.92;;;3.63;;
18893;SDS011;9579;49.488;8.226;2023-08-01T00:08:19;4.90;;;4.47;;
18893;SDS011;9579;49.488;8.226;2023-08-01T00:11:06;4.55;;;4.15;;
18893;SDS011;9579;49.488;8.226;2023-08-01T00:13:55;4.70;;;4.20;;
18893;SDS011;9579;49.488;8.226;2023-08-01T00:16:42;4.78;;;4.25;;
18893;SDS011;9579;49.488;8.226;2023-08-01T00:19:29;6.45;;;4.55;;
18893;SDS011;9579;49.488;8.226;2023-08-01T00:22:17;5.72;;;4.30;;
18893;SDS011;9579;49.488;8.226;2023-08-01T00:25:04;5.97;;;4.60;;
18893;SDS011;9579;49.488;8.226;2023-08-01T00:27:52;4.97;;;4.47;;
18893;SDS011;9579;49.488;8.226;2023-08-01T00:30:39;4.60;;;4.20;;
18893;SDS011;9579;49.488;8.226;2023-08-01T00:33:26;4.88;;;4.32;;
18893;SDS011;9579;49.488;8.226;2023-08-01T00:36:13;4.85;;;4.00;;
18893;SDS011;9579;49.488;8.226;2023-08-01T00:39:02;4.78;;;4.35;;
18893;SDS011;9579;49.488;8.226;2023-08-01T00:41:49;4.68;;;4.28;;
18893;SDS011;9579;49.488;8.226;2023-08-01T00:44:36;5.07;;;4.57;;
18893;SDS011;9579;49.488;8.226;2023-08-01T00:47:23;4.78;;;4.38;;
18893;SDS011;9579;49.488;8.226;2023-08-01T00:50:10;5.55;;;4.35;;
18893;SDS011;9579;49.488;8.226;2023-08-01T00:52:57;4.43;;;4.05;;
18893;SDS011;9579;49.488;8.226;2023-08-01T00:55:46;5.25;;;4.60;;
18893;SDS011;9579;49.488;8.226;2023-08-01T00:58:33;6.13;;;4.68;;
18893;SDS011;9579;49.488;8.226;2023-08-01T01:01:20;4.85;;;4.45;;
18893;SDS011;9579;49.488;8.226;2023-08-01T01:04:07;6.57;;;4.80;;
18893;SDS011;9579;49.488;8.226;2023-08-01T01:06:57;6.68;;;4.95;;
18893;SDS011;9579;49.488;8.226;2023-08-01T01:09:48;5.13;;;4.55;;
18893;SDS011;9579;49.488;8.226;2023-08-01T01:12:37;4.85;;;4.43;;
18893;SDS011;9579;49.488;8.226;2023-08-01T01:15:24;5.20;;;4.70;;
18893;SDS011;9579;49.488;8.226;2023-08-01T01:18:11;5.22;;;4.72;;
18893;SDS011;9579;49.488;8.226;2023-08-01T01:21:00;4.90;;;4.40;;
18893;SDS011;9579;49.488;8.226;2023-08-01T01:23:47;5.15;;;4.43;;
18893;SDS011;9579;49.488;8.226;2023-08-01T01:26:37;5.13;;;4.25;;
18893;SDS011;9579;49.488;8.226;2023-08-01T01:29:25;5.28;;;4.55;;
18893;SDS011;9579;49.488;8.226;2023-08-01T01:32:13;4.93;;;4.40;;
18893;SDS011;9579;49.488;8.226;2023-08-01T01:35:01;5.40;;;4.70;;
18893;SDS011;9579;49.488;8.226;2023-08-01T01:37:51;5.78;;;5.18;;
18893;SDS011;9579;49.488;8.226;2023-08-01T01:40:44;5.43;;;4.82;;
18893;SDS011;9579;49.488;8.226;2023-08-01T01:44:26;4.82;;;4.10;;
18893;SDS011;9579;49.488;8.226;2023-08-01T01:47:13;5.15;;;4.22;;
18893;SDS011;9579;49.488;8.226;2023-08-01T01:50:01;4.70;;;4.20;;
18893;SDS011;9579;49.488;8.226;2023-08-01T01:52:49;6.28;;;4.53;;
18893;SDS011;9579;49.488;8.226;2023-08-01T01:55:37;6.38;;;4.88;;
18893;SDS011;9579;49.488;8.226;2023-08-01T01:58:26;6.20;;;4.80;;
18893;SDS011;9579;49.488;8.226;2023-08-01T02:01:13;4.68;;;4.15;;
18893;SDS011;9579;49.488;8.226;2023-08-01T02:04:00;6.00;;;4.40;;
18893;SDS011;9579;49.488;8.226;2023-08-01T02:06:47;6.18;;;4.32;;
18893;SDS011;9579;49.488;8.226;2023-08-01T02:09:36;4.97;;;4.43;;
18893;SDS011;9579;49.488;8.226;2023-08-01T02:12:23;5.03;;;4.53;;
18893;SDS011;9579;49.488;8.226;2023-08-01T02:15:10;6.30;;;5.05;;
18893;SDS011;9579;49.488;8.226;2023-08-01T02:17:57;5.82;;;4.82;;
18893;SDS011;9579;49.488;8.226;2023-08-01T02:20:44;6.35;;;5.20;;
18893;SDS011;9579;49.488;8.226;2023-08-01T02:23:31;5.47;;;4.40;;
18893;SDS011;9579;49.488;8.226;2023-08-01T02:26:26;5.72;;;4.50;;
18893;SDS011;9579;49.488;8.226;2023-08-01T02:29:14;5.15;;;4.43;;
18893;SDS011;9579;49.488;8.226;2023-08-01T02:32:01;5.57;;;4.85;;
18893;SDS011;9579;49.488;8.226;2023-08-01T02:34:48;4.85;;;4.30;;
18893;SDS011;9579;49.488;8.226;2023-08-01T02:37:35;5.15;;;4.65;;
18893;SDS011;9579;49.488;8.226;2023-08-01T02:40:22;5.30;;;4.47;;
18893;SDS011;9579;49.488;8.226;2023-08-01T02:43:10;5.60;;;4.80;;
18893;SDS011;9579;49.488;8.226;2023-08-01T02:45:58;5.72;;;4.70;;
18893;SDS011;9579;49.488;8.226;2023-08-01T02:48:47;5.50;;;4.28;;
18893;SDS011;9579;49.488;8.226;2023-08-01T02:51:34;5.15;;;4.30;;
18893;SDS011;9579;49.488;8.226;2023-08-01T02:54:21;4.55;;;4.15;;
18893;SDS011;9579;49.488;8.226;2023-08-01T02:57:09;4.80;;;4.40;;
18893;SDS011;9579;49.488;8.226;2023-08-01T02:59:57;4.65;;;4.13;;
18893;SDS011;9579;49.488;8.226;2023-08-01T03:02:44;6.03;;;4.72;;
18893;SDS011;9579;49.488;8.226;2023-08-01T03:05:31;5.20;;;4.55;;
18893;SDS011;9579;49.488;8.226;2023-08-01T03:08:19;5.22;;;4.40;;
18893;SDS011;9579;49.488;8.226;2023-08-01T03:11:06;4.53;;;4.13;;
18893;SDS011;9579;49.488;8.226;2023-08-01T03:13:53;4.30;;;3.90;;
18893;SDS011;9579;49.488;8.226;2023-08-01T03:16:42;4.72;;;4.00;;
18893;SDS011;9579;49.488;8.226;2023-08-01T03:19:29;4.45;;;4.05;;
18893;SDS011;9579;49.488;8.226;2023-08-01T03:22:18;5.25;;;4.20;;
18893;SDS011;9579;49.488;8.226;2023-08-01T03:25:06;3.97;;;3.60;;
18893;SDS011;9579;49.488;8.226;2023-08-01T03:28:00;3.88;;;3.47;;
18893;SDS011;9579;49.488;8.226;2023-08-01T03:30:49;4.53;;;4.00;;
18893;SDS011;9579;49.488;8.226;2023-08-01T03:34:02;4.57;;;4.10;;
18893;SDS011;9579;49.488;8.226;2023-08-01T03:37:05;4.35;;;3.95;;
18893;SDS011;9579;49.488;8.226;2023-08-01T03:39:53;4.20;;;3.80;;
18893;SDS011;9579;49.488;8.226;2023-08-01T03:42:40;4.50;;;3.75;;
18893;SDS011;9579;49.488;8.226;2023-08-01T03:45:36;3.90;;;3.60;;
18893;SDS011;9579;49.488;8.226;2023-08-01T03:48:24;4.25;;;3.83;;
18893;SDS011;9579;49.488;8.226;2023-08-01T03:51:12;4.10;;;3.70;;
18893;SDS011;9579;49.488;8.226;2023-08-01T03:54:00;4.25;;;3.88;;
18893;SDS011;9579;49.488;8.226;2023-08-01T03:56:47;4.07;;;3.72;;
18893;SDS011;9579;49.488;8.226;2023-08-01T03:59:34;4.22;;;3.83;;
18893;SDS011;9579;49.488;8.226;2023-08-01T04:02:22;4.05;;;3.70;;
18893;SDS011;9579;49.488;8.226;2023-08-01T04:05:09;4.32;;;3.92;;
18893;SDS011;9579;49.488;8.226;2023-08-01T04:08:04;4.38;;;3.97;;
18893;SDS011;9579;49.488;8.226;2023-08-01T04:10:51;4.50;;;3.92;;
18893;SDS011;9579;49.488;8.226;2023-08-01T04:13:38;3.72;;;3.42;;
18893;SDS011;9579;49.488;8.226;2023-08-01T04:16:25;3.97;;;3.67;;
18893;SDS011;9579;49.488;8.226;2023-08-01T04:19:12;3.58;;;3.28;;
18893;SDS011;9579;49.488;8.226;2023-08-01T04:21:59;3.90;;;3.50;;
18893;SDS011;9579;49.488;8.226;2023-08-01T04:24:48;3.80;;;3.50;;
18893;SDS011;9579;49.488;8.226;2023-08-01T04:27:35;3.65;;;3.05;;
18893;SDS011;9579;49.488;8.226;2023-08-01T04:30:22;3.47;;;3.17;;
18893;SDS011;9579;49.488;8.226;2023-08-01T04:33:09;3.47;;;3.17;;
18893;SDS011;9579;49.488;8.226;2023-08-01T04:35:56;3.63;;;3.33;;
18893;SDS011;9579;49.488;8.226;2023-08-01T04:38:43;4.68;;;3.90;;
18893;SDS011;9579;49.488;8.226;2023-08-01T04:41:32;6.50;;;6.00;;
18893;SDS011;9579;49.488;8.226;2023-08-01T04:44:19;7.07;;;6.38;;
18893;SDS011;9579;49.488;8.226;2023-08-01T04:47:06;8.00;;;7.25;;
18893;SDS011;9579;49.488;8.226;2023-08-01T04:49:53;8.57;;;7.78;;
18893;SDS011;9579;49.488;8.226;2023-08-01T04:52:40;8.07;;;7.20;;
18893;SDS011;9579;49.488;8.226;2023-08-01T04:55:27;9.50;;;7.95;;
18893;SDS011;9579;49.488;8.226;2023-08-01T04:58:15;8.68;;;7.88;;
18893;SDS011;9579;49.488;8.226;2023-08-01T05:01:02;8.68;;;7.88;;
18893;SDS011;9579;49.488;8.226;2023-08-01T05:03:49;8.02;;;7.32;;
18893;SDS011;9579;49.488;8.226;2023-08-01T05:06:36;7.90;;;7.10;;
18893;SDS011;9579;49.488;8.226;2023-08-01T05:09:23;8.02;;;7.25;;
18893;SDS011;9579;49.488;8.226;2023-08-01T05:12:10;7.47;;;6.78;;
18893;SDS011;9579;49.488;8.226;2023-08-01T05:14:58;7.80;;;7.10;;
18893;SDS011;9579;49.488;8.226;2023-08-01T05:17:45;7.55;;;6.85;;
18893;SDS011;9579;49.488;8.226;2023-08-01T05:20:32;7.22;;;6.53;;
18893;SDS011;9579;49.488;8.226;2023-08-01T05:23:19;7.10;;;6.47;;
18893;SDS011;9579;49.488;8.226;2023-08-01T05:26:06;7.13;;;6.43;;
18893;SDS011;9579;49.488;8.226;2023-08-01T05:28:53;6.68;;;6.07;;
18893;SDS011;9579;49.488;8.226;2023-08-01T05:31:42;6.15;;;5.57;;
18893;SDS011;9579;49.488;8.226;2023-08-01T05:34:29;5.75;;;5.22;;
18893;SDS011;9579;49.488;8.226;2023-08-01T05:37:16;6.00;;;5.43;;
18893;SDS011;9579;49.488;8.226;2023-08-01T05:40:04;5.00;;;4.60;;
18893;SDS011;9579;49.488;8.226;2023-08-01T05:42:51;5.25;;;4.85;;
18893;SDS011;9579;49.488;8.226;2023-08-01T05:45:38;5.00;;;4.50;;
18893;SDS011;9579;49.488;8.226;2023-08-01T05:48:27;5.00;;;4.60;;
18893;SDS011;9579;49.488;8.226;2023-08-01T05:51:14;4.60;;;4.20;;
18893;SDS011;9579;49.488;8.226;2023-08-01T05:54:01;4.85;;;4.18;;
18893;SDS011;9579;49.488;8.226;2023-08-01T05:56:48;4.43;;;3.97;;
18893;SDS011;9579;49.488;8.226;2023-08-01T05:59:36;3.65;;;3.03;;
18893;SDS011;9579;49.488;8.226;2023-08-01T06:02:23;4.25;;;3.85;;
18893;SDS011;9579;49.488;8.226;2023-08-01T06:05:11;3.80;;;3.50;;
18893;SDS011;9579;49.488;8.226;2023-08-01T06:07:58;2.80;;;2.60;;
18893;SDS011;9579;49.488;8.226;2023-08-01T06:10:45;3.47;;;3.17;;
18893;SDS011;9579;49.488;8.226;2023-08-01T06:13:33;2.70;;;2.50;;
18893;SDS011;9579;49.488;8.226;2023-08-01T06:16:20;2.33;;;2.20;;
18893;SDS011;9579;49.488;8.226;2023-08-01T06:19:07;2.40;;;2.20;;
18893;SDS011;9579;49.488;8.226;2023-08-01T06:21:56;1.90;;;1.80;;
18893;SDS011;9579;49.488;8.226;2023-08-01T06:24:43;2.50;;;2.30;;
18893;SDS011;9579;49.488;8.226;2023-08-01T06:27:30;2.22;;;2.08;;
18893;SDS011;9579;49.488;8.226;2023-08-01T06:30:17;2.47;;;2.30;;
18893;SDS011;9579;49.488;8.226;2023-08-01T06:33:04;3.28;;;2.35;;
18893;SDS011;9579;49.488;8.226;2023-08-01T06:35:51;2.17;;;2.03;;
18893;SDS011;9579;49.488;8.226;2023-08-01T06:38:40;2.40;;;2.20;;
18893;SDS011;9579;49.488;8.226;2023-08-01T06:41:27;2.50;;;2.15;;
18893;SDS011;9579;49.488;8.226;2023-08-01T06:44:14;2.50;;;2.30;;
18893;SDS011;9579;49.488;8.226;2023-08-01T06:47:01;2.15;;;1.95;;
18893;SDS011;9579;49.488;8.226;2023-08-01T06:49:48;2.10;;;2.00;;
18893;SDS011;9579;49.488;8.226;2023-08-01T06:52:35;2.13;;;1.98;;
18893;SDS011;9579;49.488;8.226;2023-08-01T06:55:24;1.90;;;1.80;;
18893;SDS011;9579;49.488;8.226;2023-08-01T06:58:11;1.52;;;1.42;;
18893;SDS011;9579;49.488;8.226;2023-08-01T07:00:58;1.30;;;1.20;;
18893;SDS011;9579;49.488;8.226;2023-08-01T07:03:45;1.50;;;1.40;;
18893;SDS011;9579;49.488;8.226;2023-08-01T07:06:32;1.55;;;1.17;;
18893;SDS011;9579;49.488;8.226;2023-08-01T07:09:19;1.10;;;1.10;;
18893;SDS011;9579;49.488;8.226;2023-08-01T07:12:08;1.10;;;1.10;;
18893;SDS011;9579;49.488;8.226;2023-08-01T07:14:55;1.30;;;1.20;;
18893;SDS011;9579;49.488;8.226;2023-08-01T07:17:42;1.00;;;1.00;;
18893;SDS011;9579;49.488;8.226;2023-08-01T07:20:29;1.33;;;1.20;;
18893;SDS011;9579;49.488;8.226;2023-08-01T07:23:16;1.10;;;1.00;;
18893;SDS011;9579;49.488;8.226;2023-08-01T07:26:03;1.00;;;1.00;;
18893;SDS011;9579;49.488;8.226;2023-08-01T07:28:53;1.30;;;1.10;;
18893;SDS011;9579;49.488;8.226;2023-08-01T07:31:40;1.00;;;1.00;;
18893;SDS011;9579;49.488;8.226;2023-08-01T07:34:28;1.05;;;1.05;;
18893;SDS011;9579;49.488;8.226;2023-08-01T07:37:15;0.80;;;0.80;;
18893;SDS011;9579;49.488;8.226;2023-08-01T07:40:02;1.10;;;1.10;;
18893;SDS011;9579;49.488;8.226;2023-08-01T07:42:50;0.90;;;0.90;;
18893;SDS011;9579;49.488;8.226;2023-08-01T07:45:39;0.80;;;0.80;;
18893;SDS011;9579;49.488;8.226;2023-08-01T07:48:26;1.02;;;1.00;;
18893;SDS011;9579;49.488;8.226;2023-08-01T07:51:13;1.67;;;1.55;;
18893;SDS011;9579;49.488;8.226;2023-08-01T07:54:00;1.80;;;1.70;;
18893;SDS011;9579;49.488;8.226;2023-08-01T07:56:47;1.10;;;1.10;;
18893;SDS011;9579;49.488;8.226;2023-08-01T07:59:34;1.00;;;0.90;;
18893;SDS011;9579;49.488;8.226;2023-08-01T08:02:26;1.25;;;0.90;;
18893;SDS011;9579;49.488;8.226;2023-08-01T08:05:13;0.90;;;0.90;;
18893;SDS011;9579;49.488;8.226;2023-08-01T08:08:00;0.90;;;0.90;;
18893;SDS011;9579;49.488;8.226;2023-08-01T08:10:47;0.90;;;0.90;;
18893;SDS011;9579;49.488;8.226;2023-08-01T08:13:34;1.10;;;1.00;;
18893;SDS011;9579;49.488;8.226;2023-08-01T08:16:21;1.00;;;1.00;;
18893;SDS011;9579;49.488;8.226;2023-08-01T08:19:13;1.30;;;1.20;;
18893;SDS011;9579;49.488;8.226;2023-08-01T08:22:01;1.33;;;1.23;;
18893;SDS011;9579;49.488;8.226;2023-08-01T08:24:50;1.25;;;1.15;;
18893;SDS011;9579;49.488;8.226;2023-08-01T08:27:37;1.00;;;1.00;;
18893;SDS011;9579;49.488;8.226;2023-08-01T08:30:26;1.20;;;1.10;;
18893;SDS011;9579;49.488;8.226;2023-08-01T08:33:19;1.02;;;1.00;;
18893;SDS011;9579;49.488;8.226;2023-08-01T08:36:10;1.33;;;1.15;;
18893;SDS011;9579;49.488;8.226;2023-08-01T08:38:58;0.90;;;0.90;;
18893;SDS011;9579;49.488;8.226;2023-08-01T08:41:47;1.10;;;1.10;;
18893;SDS011;9579;49.488;8.226;2023-08-01T08:44:42;0.98;;;0.98;;
18893;SDS011;9579;49.488;8.226;2023-08-01T08:47:30;1.00;;;1.00;;
18893;SDS011;9579;49.488;8.226;2023-08-01T08:50:21;1.20;;;1.10;;
18893;SDS011;9579;49.488;8.226;2023-08-01T08:53:13;1.10;;;1.10;;
18893;SDS011;9579;49.488;8.226;2023-08-01T08:56:01;1.02;;;1.02;;
18893;SDS011;9579;49.488;8.226;2023-08-01T08:58:49;1.27;;;1.20;;
18893;SDS011;9579;49.488;8.226;2023-08-01T09:01:39;1.10;;;1.10;;
18893;SDS011;9579;49.488;8.226;2023-08-01T09:04:26;1.80;;;0.90;;
18893;SDS011;9579;49.488;8.226;2023-08-01T09:07:14;1.55;;;1.20;;
18893;SDS011;9579;49.488;8.226;2023-08-01T09:10:08;0.90;;;0.90;;
18893;SDS011;9579;49.488;8.226;2023-08-01T09:12:55;1.02;;;1.02;;
18893;SDS011;9579;49.488;8.226;2023-08-01T09:15:42;1.20;;;1.20;;
18893;SDS011;9579;49.488;8.226;2023-08-01T09:18:32;1.35;;;1.30;;
18893;SDS011;9579;49.488;8.226;2023-08-01T09:21:20;1.30;;;1.30;;
18893;SDS011;9579;49.488;8.226;2023-08-01T09:24:08;1.05;;;1.02;;
18893;SDS011;9579;49.488;8.226;2023-08-01T09:27:02;1.40;;;1.30;;
18893;SDS011;9579;49.488;8.226;2023-08-01T09:29:50;1.30;;;1.20;;
18893;SDS011;9579;49.488;8.226;2023-08-01T09:32:37;1.42;;;1.33;;
18893;SDS011;9579;49.488;8.226;2023-08-01T09:35:25;1.33;;;1.20;;
18893;SDS011;9579;49.488;8.226;2023-08-01T09:38:12;1.92;;;1.30;;
18893;SDS011;9579;49.488;8.226;2023-08-01T09:41:02;1.40;;;1.30;;
18893;SDS011;9579;49.488;8.226;2023-08-01T09:43:51;1.40;;;1.30;;
18893;SDS011;9579;49.488;8.226;2023-08-01T09:46:38;1.30;;;1.20;;
18893;SDS011;9579;49.488;8.226;2023-08-01T09:49:26;1.80;;;1.17;;
18893;SDS011;9579;49.488;8.226;2023-08-01T09:52:14;1.45;;;1.30;;
18893;SDS011;9579;49.488;8.226;2023-08-01T09:55:01;1.50;;;1.40;;
18893;SDS011;9579;49.488;8.226;2023-08-01T09:57:48;1.23;;;1.23;;
18893;SDS011;9579;49.488;8.226;2023-08-01T10:00:38;1.50;;;1.40;;
18893;SDS011;9579;49.488;8.226;2023-08-01T10:03:26;1.60;;;1.50;;
18893;SDS011;9579;49.488;8.226;2023-08-01T10:06:16;1.50;;;1.40;;
18893;SDS011;9579;49.488;8.226;2023-08-01T10:09:05;1.45;;;1.38;;
18893;SDS011;9579;49.488;8.226;2023-08-01T10:11:52;1.40;;;1.30;;
18893;SDS011;9579;49.488;8.226;2023-08-01T10:14:41;2.42;;;1.60;;
18893;SDS011;9579;49.488;8.226;2023-08-01T10:17:30;2.63;;;1.63;;
18893;SDS011;9579;49.488;8.226;2023-08-01T10:20:18;2.22;;;1.60;;
18893;SDS011;9579;49.488;8.226;2023-08-01T10:23:06;1.77;;;1.40;;
18893;SDS011;9579;49.488;8.226;2023-08-01T10:25:55;1.88;;;1.60;;
18893;SDS011;9579;49.488;8.226;2023-08-01T10:28:49;1.40;;;1.30;;
18893;SDS011;9579;49.488;8.226;2023-08-01T10:31:37;1.88;;;1.48;;
18893;SDS011;9579;49.488;8.226;2023-08-01T10:34:27;1.63;;;1.52;;
18893;SDS011;9579;49.488;8.226;2023-08-01T10:37:17;1.67;;;1.58;;
18893;SDS011;9579;49.488;8.226;2023-08-01T10:40:05;1.70;;;1.60;;
18893;SDS011;9579;49.488;8.226;2023-08-01T10:42:53;1.70;;;1.60;;
18893;SDS011;9579;49.488;8.226;2023-08-01T10:45:40;1.60;;;1.50;;
18893;SDS011;9579;49.488;8.226;2023-08-01T10:48:27;1.60;;;1.33;;
18893;SDS011;9579;49.488;8.226;2023-08-01T10:51:16;1.35;;;1.25;;
18893;SDS011;9579;49.488;8.226;2023-08-01T10:54:03;1.52;;;1.42;;
18893;SDS011;9579;49.488;8.226;2023-08-01T10:56:53;1.77;;;1.50;;
18893;SDS011;9579;49.488;8.226;2023-08-01T10:59:45;1.40;;;1.30;;
18893;SDS011;9579;49.488;8.226;2023-08-01T11:02:32;1.80;;;1.50;;
18893;SDS011;9579;49.488;8.226;2023-08-01T11:05:19;2.22;;;1.52;;
18893;SDS011;9579;49.488;8.226;2023-08-01T11:08:10;1.60;;;1.50;;
18893;SDS011;9579;49.488;8.226;2023-08-01T11:10:57;1.75;;;1.65;;
18893;SDS011;9579;49.488;8.226;2023-08-01T11:13:51;1.92;;;1.70;;
18893;SDS011;9579;49.488;8.226;2023-08-01T11:16:42;1.73;;;1.63;;
18893;SDS011;9579;49.488;8.226;2023-08-01T11:19:29;2.40;;;1.60;;
18893;SDS011;9579;49.488;8.226;2023-08-01T11:22:16;2.25;;;1.63;;
18893;SDS011;9579;49.488;8.226;2023-08-01T11:25:06;2.88;;;1.92;;
18893;SDS011;9579;49.488;8.226;2023-08-01T11:27:53;2.00;;;1.80;;
18893;SDS011;9579;49.488;8.226;2023-08-01T11:30:40;2.28;;;1.70;;
18893;SDS011;9579;49.488;8.226;2023-08-01T11:33:28;1.95;;;1.75;;
18893;SDS011;9579;49.488;8.226;2023-08-01T11:36:15;1.90;;;1.80;;
18893;SDS011;9579;49.488;8.226;2023-08-01T11:39:03;2.72;;;2.00;;
18893;SDS011;9579;49.488;8.226;2023-08-01T11:41:52;1.83;;;1.70;;
18893;SDS011;9579;49.488;8.226;2023-08-01T11:44:39;3.70;;;2.10;;
18893;SDS011;9579;49.488;8.226;2023-08-01T11:47:26;1.85;;;1.70;;
18893;SDS011;9579;49.488;8.226;2023-08-01T11:50:13;1.63;;;1.52;;
18893;SDS011;9579;49.488;8.226;2023-08-01T11:53:00;2.67;;;2.17;;
18893;SDS011;9579;49.488;8.226;2023-08-01T11:55:47;2.08;;;1.85;;
18893;SDS011;9579;49.488;8.226;2023-08-01T11:58:40;2.35;;;2.10;;
18893;SDS011;9579;49.488;8.226;2023-08-01T12:01:28;2.20;;;2.00;;
18893;SDS011;9579;49.488;8.226;2023-08-01T12:04:23;2.25;;;1.80;;
18893;SDS011;9579;49.488;8.226;2023-08-01T12:07:12;3.08;;;2.30;;
18893;SDS011;9579;49.488;8.226;2023-08-01T12:10:00;2.35;;;2.15;;
18893;SDS011;9579;49.488;8.226;2023-08-01T12:12:48;2.42;;;1.90;;
18893;SDS011;9579;49.488;8.226;2023-08-01T12:15:36;1.90;;;1.80;;
18893;SDS011;9579;49.488;8.226;2023-08-01T12:18:24;2.05;;;1.85;;
18893;SDS011;9579;49.488;8.226;2023-08-01T12:21:12;3.50;;;1.88;;
18893;SDS011;9579;49.488;8.226;2023-08-01T12:23:59;2.40;;;2.00;;
18893;SDS011;9579;49.488;8.226;2023-08-01T12:26:47;2.03;;;1.70;;
18893;SDS011;9579;49.488;8.226;2023-08-01T12:29:35;1.95;;;1.77;;
18893;SDS011;9579;49.488;8.226;2023-08-01T12:32:23;2.00;;;1.80;;
18893;SDS011;9579;49.488;8.226;2023-08-01T12:35:10;2.13;;;1.90;;
18893;SDS011;9579;49.488;8.226;2023-08-01T12:37:57;3.17;;;2.05;;
18893;SDS011;9579;49.488;8.226;2023-08-01T12:40:47;1.80;;;1.70;;
18893;SDS011;9579;49.488;8.226;2023-08-01T12:43:34;2.55;;;1.90;;
18893;SDS011;9579;49.488;8.226;2023-08-01T12:46:22;2.47;;;1.90;;
18893;SDS011;9579;49.488;8.226;2023-08-01T12:49:10;1.80;;;1.70;;
18893;SDS011;9579;49.488;8.226;2023-08-01T12:51:58;2.10;;;1.90;;
18893;SDS011;9579;49.488;8.226;2023-08-01T12:54:45;2.80;;;2.20;;
18893;SDS011;9579;49.488;8.226;2023-08-01T12:57:32;2.92;;;1.92;;
18893;SDS011;9579;49.488;8.226;2023-08-01T13:00:20;1.98;;;1.77;;
18893;SDS011;9579;49.488;8.226;2023-08-01T13:03:07;2.53;;;1.95;;
18893;SDS011;9579;49.488;8.226;2023-08-01T13:05:56;2.15;;;1.95;;
18893;SDS011;9579;49.488;8.226;2023-08-01T13:08:43;2.17;;;2.00;;
18893;SDS011;9579;49.488;8.226;2023-08-01T13:11:30;2.22;;;2.03;;
18893;SDS011;9579;49.488;8.226;2023-08-01T13:14:17;2.42;;;2.20;;
18893;SDS011;9579;49.488;8.226;2023-08-01T13:17:05;2.72;;;1.92;;
18893;SDS011;9579;49.488;8.226;2023-08-01T13:19:52;2.33;;;1.95;;
18893;SDS011;9579;49.488;8.226;2023-08-01T13:22:40;2.38;;;1.90;;
18893;SDS011;9579;49.488;8.226;2023-08-01T13:25:27;2.28;;;2.05;;
18893;SDS011;9579;49.488;8.226;2023-08-01T13:28:15;2.80;;;2.20;;
18893;SDS011;9579;49.488;8.226;2023-08-01T13:31:02;2.45;;;2.17;;
18893;SDS011;9579;49.488;8.226;2023-08-01T13:33:49;2.10;;;1.90;;
18893;SDS011;9579;49.488;8.226;2023-08-01T13:36:36;2.42;;;1.98;;
18893;SDS011;9579;49.488;8.226;2023-08-01T13:39:25;2.47;;;2.10;;
18893;SDS011;9579;49.488;8.226;2023-08-01T13:42:12;3.33;;;2.45;;
18893;SDS011;9579;49.488;8.226;2023-08-01T13:44:59;2.10;;;1.90;;
18893;SDS011;9579;49.488;8.226;2023-08-01T13:47:46;2.47;;;1.83;;
18893;SDS011;9579;49.488;8.226;2023-08-01T13:50:33;2.05;;;1.90;;
18893;SDS011;9579;49.488;8.226;2023-08-01T13:53:20;2.25;;;1.95;;
18893;SDS011;9579;49.488;8.226;2023-08-01T13:56:09;2.63;;;2.10;;
18893;SDS011;9579;49.488;8.226;2023-08-01T13:58:56;2.13;;;1.98;;
18893;SDS011;9579;49.488;8.226;2023-08-01T14:01:43;2.58;;;1.95;;
18893;SDS011;9579;49.488;8.226;2023-08-01T14:04:31;2.15;;;1.95;;
18893;SDS011;9579;49.488;8.226;2023-08-01T14:07:18;2.47;;;2.10;;
18893;SDS011;9579;49.488;8.226;2023-08-01T14:10:06;2.42;;;2.00;;
18893;SDS011;9579;49.488;8.226;2023-08-01T14:12:55;3.15;;;2.10;;
18893;SDS011;9579;49.488;8.226;2023-08-01T14:15:42;3.42;;;2.10;;
18893;SDS011;9579;49.488;8.226;2023-08-01T14:18:29;2.38;;;1.90;;
18893;SDS011;9579;49.488;8.226;2023-08-01T14:21:17;2.70;;;1.83;;
18893;SDS011;9579;49.488;8.226;2023-08-01T14:24:04;2.20;;;2.00;;
18893;SDS011;9579;49.488;8.226;2023-08-01T14:26:51;2.22;;;2.03;;
18893;SDS011;9579;49.488;8.226;2023-08-01T14:29:39;1.95;;;1.83;;
18893;SDS011;9579;49.488;8.226;2023-08-01T14:32:27;2.08;;;1.90;;
18893;SDS011;9579;49.488;8.226;2023-08-01T14:35:14;1.83;;;1.65;;
18893;SDS011;9579;49.488;8.226;2023-08-01T14:38:02;2.08;;;1.88;;
18893;SDS011;9579;49.488;8.226;2023-08-01T14:40:49;2.13;;;1.92;;
18893;SDS011;9579;49.488;8.226;2023-08-01T14:43:36;2.15;;;1.95;;
18893;SDS011;9579;49.488;8.226;2023-08-01T14:46:24;2.45;;;2.13;;
18893;SDS011;9579;49.488;8.226;2023-08-01T14:49:11;2.75;;;1.98;;
18893;SDS011;9579;49.488;8.226;2023-08-01T14:51:58;2.63;;;1.90;;
18893;SDS011;9579;49.488;8.226;2023-08-01T14:54:45;2.50;;;1.90;;
18893;SDS011;9579;49.488;8.226;2023-08-01T14:57:33;3.90;;;2.10;;
18893;SDS011;9579;49.488;8.226;2023-08-01T15:00:20;2.53;;;2.03;;
18893;SDS011;9579;49.488;8.226;2023-08-01T15:03:09;3.15;;;2.15;;
18893;SDS011;9579;49.488;8.226;2023-08-01T15:05:56;2.40;;;1.80;;
18893;SDS011;9579;49.488;8.226;2023-08-01T15:08:51;2.20;;;2.00;;
18893;SDS011;9579;49.488;8.226;2023-08-01T15:11:38;2.03;;;1.83;;
18893;SDS011;9579;49.488;8.226;2023-08-01T15:14:25;4.32;;;2.40;;
18893;SDS011;9579;49.488;8.226;2023-08-01T15:17:12;2.35;;;2.10;;
18893;SDS011;9579;49.488;8.226;2023-08-01T15:20:00;2.90;;;2.08;;
18893;SDS011;9579;49.488;8.226;2023-08-01T15:22:49;2.17;;;1.92;;
18893;SDS011;9579;49.488;8.226;2023-08-01T15:25:36;2.25;;;1.80;;
18893;SDS011;9579;49.488;8.226;2023-08-01T15:28:23;2.47;;;2.10;;
18893;SDS011;9579;49.488;8.226;2023-08-01T15:31:11;2.92;;;1.90;;
18893;SDS011;9579;49.488;8.226;2023-08-01T15:33:58;2.15;;;1.95;;
18893;SDS011;9579;49.488;8.226;2023-08-01T15:36:47;2.88;;;2.10;;
18893;SDS011;9579;49.488;8.226;2023-08-01T15:39:34;2.95;;;2.00;;
18893;SDS011;9579;49.488;8.226;2023-08-01T15:42:21;2.22;;;2.03;;
18893;SDS011;9579;49.488;8.226;2023-08-01T15:45:08;2.13;;;1.90;;
18893;SDS011;9579;49.488;8.226;2023-08-01T15:47:56;2.65;;;2.00;;
18893;SDS011;9579;49.488;8.226;2023-08-01T15:50:44;1.90;;;1.80;;
18893;SDS011;9579;49.488;8.226;2023-08-01T15:53:33;2.42;;;2.03;;
18893;SDS011;9579;49.488;8.226;2023-08-01T15:56:20;1.85;;;1.70;;
18893;SDS011;9579;49.488;8.226;2023-08-01T15:59:08;2.10;;;2.00;;
18893;SDS011;9579;49.488;8.226;2023-08-01T16:01:55;3.28;;;2.10;;
18893;SDS011;9579;49.488;8.226;2023-08-01T16:04:42;3.67;;;2.55;;
18893;SDS011;9579;49.488;8.226;2023-08-01T16:07:29;3.53;;;2.20;;
18893;SDS011;9579;49.488;8.226;2023-08-01T16:10:17;2.60;;;2.03;;
18893;SDS011;9579;49.488;8.226;2023-08-01T16:13:04;3.42;;;2.55;;
18893;SDS011;9579;49.488;8.226;2023-08-01T16:15:51;3.22;;;2.78;;
18893;SDS011;9579;49.488;8.226;2023-08-01T16:18:38;2.63;;;2.40;;
18893;SDS011;9579;49.488;8.226;2023-08-01T16:21:25;2.58;;;2.38;;
18893;SDS011;9579;49.488;8.226;2023-08-01T16:24:12;2.35;;;2.15;;
18893;SDS011;9579;49.488;8.226;2023-08-01T16:27:01;2.42;;;2.17;;
18893;SDS011;9579;49.488;8.226;2023-08-01T16:29:48;2.55;;;2.05;;
18893;SDS011;9579;49.488;8.226;2023-08-01T16:32:35;1.90;;;1.77;;
18893;SDS011;9579;49.488;8.226;2023-08-01T16:35:22;1.98;;;1.88;;
18893;SDS011;9579;49.488;8.226;2023-08-01T16:38:09;2.72;;;2.00;;
18893;SDS011;9579;49.488;8.226;2023-08-01T16:40:56;3.88;;;2.35;;
18893;SDS011;9579;49.488;8.226;2023-08-01T16:43:47;2.95;;;2.10;;
18893;SDS011;9579;49.488;8.226;2023-08-01T16:46:37;3.97;;;2.70;;
18893;SDS011;9579;49.488;8.226;2023-08-01T16:49:26;2.75;;;2.20;;
18893;SDS011;9579;49.488;8.226;2023-08-01T16:52:16;3.17;;;2.50;;
18893;SDS011;9579;49.488;8.226;2023-08-01T16:55:04;3.00;;;2.20;;
18893;SDS011;9579;49.488;8.226;2023-08-01T16:57:52;2.28;;;2.08;;
18893;SDS011;9579;49.488;8.226;2023-08-01T17:00:43;2.55;;;2.30;;
18893;SDS011;9579;49.488;8.226;2023-08-01T17:03:30;4.10;;;2.40;;
18893;SDS011;9579;49.488;8.226;2023-08-01T17:06:20;2.90;;;2.45;;
18893;SDS011;9579;49.488;8.226;2023-08-01T17:09:08;2.75;;;2.30;;